sensor_id;sensor_type;location;lat;lon;timestamp;P1;durP1;ratioP1;P2;durP2;ratioP2
37199;SDS011;23096;50.892;16.746;2022-08-19T00:00:41;11.57;;;8.68;;
37199;SDS011;23096;50.892;16.746;2022-08-19T00:03:08;12.35;;;9.78;;
37199;SDS011;23096;50.892;16.746;2022-08-19T00:05:34;18.12;;;9.70;;
37199;SDS011;23096;50.892;16.746;2022-08-19T00:08:01;11.60;;;9.30;;
37199;SDS011;23096;50.892;16.746;2022-08-19T00:10:28;14.50;;;9.23;;
37199;SDS011;23096;50.892;16.746;2022-08-19T00:12:54;12.75;;;8.78;;
37199;SDS011;23096;50.892;16.746;2022-08-19T00:15:21;15.95;;;9.48;;
37199;SDS011;23096;50.892;16.746;2022-08-19T00:17:48;10.72;;;9.65;;
37199;SDS011;23096;50.892;16.746;2022-08-19T00:20:17;15.05;;;10.10;;
37199;SDS011;23096;50.892;16.746;2022-08-19T00:22:45;13.78;;;10.20;;
37199;SDS011;23096;50.892;16.746;2022-08-19T00:25:13;11.65;;;8.98;;
37199;SDS011;23096;50.892;16.746;2022-08-19T00:27:40;13.20;;;9.25;;
37199;SDS011;23096;50.892;16.746;2022-08-19T00:30:07;15.18;;;9.43;;
37199;SDS011;23096;50.892;16.746;2022-08-19T00:32:35;12.07;;;9.75;;
37199;SDS011;23096;50.892;16.746;2022-08-19T00:35:02;15.23;;;10.25;;
37199;SDS011;23096;50.892;16.746;2022-08-19T00:37:29;14.05;;;10.10;;
37199;SDS011;23096;50.892;16.746;2022-08-19T00:39:55;21.17;;;10.98;;
37199;SDS011;23096;50.892;16.746;2022-08-19T00:42:21;15.63;;;10.43;;
37199;SDS011;23096;50.892;16.746;2022-08-19T00:44:48;12.73;;;10.35;;
37199;SDS011;23096;50.892;16.746;2022-08-19T00:47:16;12.25;;;10.35;;
37199;SDS011;23096;50.892;16.746;2022-08-19T00:49:50;17.75;;;12.98;;
37199;SDS011;23096;50.892;16.746;2022-08-19T00:52:20;12.80;;;10.65;;
37199;SDS011;23096;50.892;16.746;2022-08-19T00:54:48;13.60;;;10.98;;
37199;SDS011;23096;50.892;16.746;2022-08-19T00:57:17;12.23;;;10.95;;
37199;SDS011;23096;50.892;16.746;2022-08-19T00:59:48;13.83;;;10.47;;
37199;SDS011;23096;50.892;16.746;2022-08-19T01:02:18;15.58;;;11.25;;
37199;SDS011;23096;50.892;16.746;2022-08-19T01:04:44;21.12;;;11.25;;
37199;SDS011;23096;50.892;16.746;2022-08-19T01:07:11;13.93;;;10.80;;
37199;SDS011;23096;50.892;16.746;2022-08-19T01:09:38;13.78;;;11.48;;
37199;SDS011;23096;50.892;16.746;2022-08-19T01:12:04;17.27;;;10.63;;
37199;SDS011;23096;50.892;16.746;2022-08-19T01:14:31;14.70;;;11.12;;
37199;SDS011;23096;50.892;16.746;2022-08-19T01:16:58;14.70;;;10.90;;
37199;SDS011;23096;50.892;16.746;2022-08-19T01:19:29;14.98;;;11.85;;
37199;SDS011;23096;50.892;16.746;2022-08-19T01:22:04;12.65;;;11.35;;
37199;SDS011;23096;50.892;16.746;2022-08-19T01:24:40;13.75;;;11.25;;
37199;SDS011;23096;50.892;16.746;2022-08-19T01:27:07;14.35;;;11.50;;
37199;SDS011;23096;50.892;16.746;2022-08-19T01:29:34;14.30;;;10.80;;
37199;SDS011;23096;50.892;16.746;2022-08-19T01:32:05;13.67;;;11.57;;
37199;SDS011;23096;50.892;16.746;2022-08-19T01:34:34;15.20;;;11.30;;
37199;SDS011;23096;50.892;16.746;2022-08-19T01:37:05;12.90;;;10.65;;
37199;SDS011;23096;50.892;16.746;2022-08-19T01:39:36;16.93;;;11.15;;
37199;SDS011;23096;50.892;16.746;2022-08-19T01:42:06;20.62;;;11.38;;
37199;SDS011;23096;50.892;16.746;2022-08-19T01:44:35;17.60;;;12.25;;
37199;SDS011;23096;50.892;16.746;2022-08-19T01:47:02;15.13;;;11.95;;
37199;SDS011;23096;50.892;16.746;2022-08-19T01:49:30;18.52;;;11.45;;
37199;SDS011;23096;50.892;16.746;2022-08-19T01:51:56;14.03;;;11.80;;
37199;SDS011;23096;50.892;16.746;2022-08-19T01:54:25;13.58;;;10.98;;
37199;SDS011;23096;50.892;16.746;2022-08-19T01:56:53;16.02;;;12.13;;
37199;SDS011;23096;50.892;16.746;2022-08-19T01:59:27;14.40;;;10.80;;
37199;SDS011;23096;50.892;16.746;2022-08-19T02:01:54;16.90;;;11.20;;
37199;SDS011;23096;50.892;16.746;2022-08-19T02:04:20;12.07;;;10.88;;
37199;SDS011;23096;50.892;16.746;2022-08-19T02:06:46;13.62;;;11.05;;
37199;SDS011;23096;50.892;16.746;2022-08-19T02:09:13;16.45;;;11.65;;
37199;SDS011;23096;50.892;16.746;2022-08-19T02:11:39;15.68;;;11.18;;
37199;SDS011;23096;50.892;16.746;2022-08-19T02:14:07;14.63;;;11.48;;
37199;SDS011;23096;50.892;16.746;2022-08-19T02:16:34;14.65;;;10.82;;
37199;SDS011;23096;50.892;16.746;2022-08-19T02:19:02;13.98;;;11.28;;
37199;SDS011;23096;50.892;16.746;2022-08-19T02:21:29;14.93;;;11.20;;
37199;SDS011;23096;50.892;16.746;2022-08-19T02:23:57;13.78;;;12.18;;
37199;SDS011;23096;50.892;16.746;2022-08-19T02:26:23;11.80;;;10.60;;
37199;SDS011;23096;50.892;16.746;2022-08-19T02:28:52;13.78;;;11.25;;
37199;SDS011;23096;50.892;16.746;2022-08-19T02:31:20;15.40;;;11.65;;
37199;SDS011;23096;50.892;16.746;2022-08-19T02:33:49;13.68;;;10.78;;
37199;SDS011;23096;50.892;16.746;2022-08-19T02:36:17;13.48;;;10.70;;
37199;SDS011;23096;50.892;16.746;2022-08-19T02:38:44;13.10;;;11.73;;
37199;SDS011;23096;50.892;16.746;2022-08-19T02:41:12;17.60;;;11.80;;
37199;SDS011;23096;50.892;16.746;2022-08-19T02:43:42;12.82;;;10.90;;
37199;SDS011;23096;50.892;16.746;2022-08-19T02:46:16;12.90;;;11.40;;
37199;SDS011;23096;50.892;16.746;2022-08-19T02:48:49;18.10;;;12.15;;
37199;SDS011;23096;50.892;16.746;2022-08-19T02:51:22;16.57;;;11.18;;
37199;SDS011;23096;50.892;16.746;2022-08-19T02:53:53;16.20;;;12.70;;
37199;SDS011;23096;50.892;16.746;2022-08-19T02:56:19;13.78;;;12.15;;
37199;SDS011;23096;50.892;16.746;2022-08-19T02:58:47;13.05;;;11.80;;
37199;SDS011;23096;50.892;16.746;2022-08-19T03:01:24;12.93;;;10.75;;
37199;SDS011;23096;50.892;16.746;2022-08-19T03:03:52;15.83;;;11.28;;
37199;SDS011;23096;50.892;16.746;2022-08-19T03:06:19;16.10;;;12.00;;
37199;SDS011;23096;50.892;16.746;2022-08-19T03:08:46;13.90;;;12.28;;
37199;SDS011;23096;50.892;16.746;2022-08-19T03:13:48;13.43;;;10.88;;
37199;SDS011;23096;50.892;16.746;2022-08-19T03:16:17;12.30;;;10.93;;
37199;SDS011;23096;50.892;16.746;2022-08-19T03:18:44;20.62;;;12.90;;
37199;SDS011;23096;50.892;16.746;2022-08-19T03:21:15;13.90;;;12.07;;
37199;SDS011;23096;50.892;16.746;2022-08-19T03:23:45;16.27;;;12.30;;
37199;SDS011;23096;50.892;16.746;2022-08-19T03:26:11;13.10;;;11.70;;
37199;SDS011;23096;50.892;16.746;2022-08-19T03:28:40;13.93;;;11.63;;
37199;SDS011;23096;50.892;16.746;2022-08-19T03:31:09;13.72;;;11.95;;
37199;SDS011;23096;50.892;16.746;2022-08-19T03:33:38;12.20;;;10.95;;
37199;SDS011;23096;50.892;16.746;2022-08-19T03:36:07;14.93;;;10.88;;
37199;SDS011;23096;50.892;16.746;2022-08-19T03:38:40;13.30;;;11.88;;
37199;SDS011;23096;50.892;16.746;2022-08-19T03:41:11;12.23;;;11.03;;
37199;SDS011;23096;50.892;16.746;2022-08-19T03:43:42;15.10;;;11.57;;
37199;SDS011;23096;50.892;16.746;2022-08-19T03:46:13;12.37;;;11.12;;
37199;SDS011;23096;50.892;16.746;2022-08-19T03:48:43;12.25;;;11.03;;
37199;SDS011;23096;50.892;16.746;2022-08-19T03:51:18;14.60;;;11.15;;
37199;SDS011;23096;50.892;16.746;2022-08-19T03:53:48;13.62;;;11.33;;
37199;SDS011;23096;50.892;16.746;2022-08-19T03:56:14;15.10;;;10.80;;
37199;SDS011;23096;50.892;16.746;2022-08-19T03:58:42;14.45;;;11.70;;
37199;SDS011;23096;50.892;16.746;2022-08-19T04:01:10;14.15;;;11.57;;
37199;SDS011;23096;50.892;16.746;2022-08-19T04:03:40;13.58;;;11.78;;
37199;SDS011;23096;50.892;16.746;2022-08-19T04:06:14;12.40;;;11.12;;
37199;SDS011;23096;50.892;16.746;2022-08-19T04:08:46;13.30;;;11.90;;
37199;SDS011;23096;50.892;16.746;2022-08-19T04:11:17;14.58;;;12.45;;
37199;SDS011;23096;50.892;16.746;2022-08-19T04:13:47;12.95;;;11.48;;
37199;SDS011;23096;50.892;16.746;2022-08-19T04:16:17;14.98;;;12.00;;
37199;SDS011;23096;50.892;16.746;2022-08-19T04:18:45;12.53;;;11.20;;
37199;SDS011;23096;50.892;16.746;2022-08-19T04:21:21;17.60;;;11.83;;
37199;SDS011;23096;50.892;16.746;2022-08-19T04:23:50;13.18;;;11.73;;
37199;SDS011;23096;50.892;16.746;2022-08-19T04:26:18;13.72;;;11.50;;
37199;SDS011;23096;50.892;16.746;2022-08-19T04:28:48;12.93;;;11.60;;
37199;SDS011;23096;50.892;16.746;2022-08-19T04:31:18;13.45;;;10.75;;
37199;SDS011;23096;50.892;16.746;2022-08-19T04:33:47;14.43;;;12.33;;
37199;SDS011;23096;50.892;16.746;2022-08-19T04:36:17;13.60;;;11.60;;
37199;SDS011;23096;50.892;16.746;2022-08-19T04:38:50;25.00;;;11.80;;
37199;SDS011;23096;50.892;16.746;2022-08-19T04:41:23;14.75;;;11.63;;
37199;SDS011;23096;50.892;16.746;2022-08-19T04:44:09;15.83;;;12.25;;
37199;SDS011;23096;50.892;16.746;2022-08-19T04:46:37;15.23;;;11.83;;
37199;SDS011;23096;50.892;16.746;2022-08-19T04:49:04;15.40;;;11.48;;
37199;SDS011;23096;50.892;16.746;2022-08-19T04:51:32;17.92;;;12.47;;
37199;SDS011;23096;50.892;16.746;2022-08-19T04:54:01;23.42;;;11.85;;
37199;SDS011;23096;50.892;16.746;2022-08-19T04:56:28;13.65;;;12.07;;
37199;SDS011;23096;50.892;16.746;2022-08-19T04:58:55;14.98;;;12.47;;
37199;SDS011;23096;50.892;16.746;2022-08-19T05:01:24;20.10;;;13.05;;
37199;SDS011;23096;50.892;16.746;2022-08-19T05:03:57;20.68;;;12.73;;
37199;SDS011;23096;50.892;16.746;2022-08-19T05:06:26;18.62;;;12.25;;
37199;SDS011;23096;50.892;16.746;2022-08-19T05:08:54;20.25;;;12.18;;
37199;SDS011;23096;50.892;16.746;2022-08-19T05:11:22;17.10;;;12.33;;
37199;SDS011;23096;50.892;16.746;2022-08-19T05:13:53;15.23;;;12.75;;
37199;SDS011;23096;50.892;16.746;2022-08-19T05:16:22;18.12;;;12.78;;
37199;SDS011;23096;50.892;16.746;2022-08-19T05:18:49;15.65;;;13.48;;
37199;SDS011;23096;50.892;16.746;2022-08-19T05:21:34;14.33;;;12.13;;
37199;SDS011;23096;50.892;16.746;2022-08-19T05:24:20;15.03;;;11.65;;
37199;SDS011;23096;50.892;16.746;2022-08-19T05:26:48;13.85;;;11.57;;
37199;SDS011;23096;50.892;16.746;2022-08-19T05:29:17;11.93;;;10.53;;
37199;SDS011;23096;50.892;16.746;2022-08-19T05:31:47;14.98;;;11.63;;
37199;SDS011;23096;50.892;16.746;2022-08-19T05:34:17;11.80;;;10.68;;
37199;SDS011;23096;50.892;16.746;2022-08-19T05:36:47;13.32;;;10.35;;
37199;SDS011;23096;50.892;16.746;2022-08-19T05:39:16;14.45;;;11.43;;
37199;SDS011;23096;50.892;16.746;2022-08-19T05:41:46;15.75;;;11.78;;
37199;SDS011;23096;50.892;16.746;2022-08-19T05:44:18;14.70;;;12.55;;
37199;SDS011;23096;50.892;16.746;2022-08-19T05:46:46;14.23;;;11.70;;
37199;SDS011;23096;50.892;16.746;2022-08-19T05:49:13;15.38;;;13.28;;
37199;SDS011;23096;50.892;16.746;2022-08-19T05:51:41;15.50;;;11.97;;
37199;SDS011;23096;50.892;16.746;2022-08-19T05:54:08;17.98;;;12.58;;
37199;SDS011;23096;50.892;16.746;2022-08-19T05:56:37;16.45;;;11.00;;
37199;SDS011;23096;50.892;16.746;2022-08-19T05:59:04;12.23;;;10.95;;
37199;SDS011;23096;50.892;16.746;2022-08-19T06:01:34;12.78;;;10.00;;
37199;SDS011;23096;50.892;16.746;2022-08-19T06:04:02;14.55;;;11.00;;
37199;SDS011;23096;50.892;16.746;2022-08-19T06:06:29;12.53;;;10.95;;
37199;SDS011;23096;50.892;16.746;2022-08-19T06:08:56;14.95;;;11.50;;
37199;SDS011;23096;50.892;16.746;2022-08-19T06:11:23;14.45;;;10.85;;
37199;SDS011;23096;50.892;16.746;2022-08-19T06:14:00;15.65;;;11.40;;
37199;SDS011;23096;50.892;16.746;2022-08-19T06:16:30;20.48;;;11.80;;
37199;SDS011;23096;50.892;16.746;2022-08-19T06:18:59;15.58;;;11.60;;
37199;SDS011;23096;50.892;16.746;2022-08-19T06:21:29;24.32;;;13.93;;
37199;SDS011;23096;50.892;16.746;2022-08-19T06:23:56;21.25;;;11.85;;
37199;SDS011;23096;50.892;16.746;2022-08-19T06:26:24;48.25;;;15.70;;
37199;SDS011;23096;50.892;16.746;2022-08-19T06:28:51;21.25;;;12.78;;
37199;SDS011;23096;50.892;16.746;2022-08-19T06:31:19;24.35;;;13.98;;
37199;SDS011;23096;50.892;16.746;2022-08-19T06:33:49;17.15;;;12.40;;
37199;SDS011;23096;50.892;16.746;2022-08-19T06:36:25;18.70;;;11.73;;
37199;SDS011;23096;50.892;16.746;2022-08-19T06:38:55;12.82;;;11.53;;
37199;SDS011;23096;50.892;16.746;2022-08-19T06:41:25;14.53;;;11.25;;
37199;SDS011;23096;50.892;16.746;2022-08-19T06:43:53;17.87;;;12.18;;
37199;SDS011;23096;50.892;16.746;2022-08-19T06:46:20;16.07;;;12.50;;
37199;SDS011;23096;50.892;16.746;2022-08-19T06:48:47;16.97;;;12.30;;
37199;SDS011;23096;50.892;16.746;2022-08-19T06:53:42;14.55;;;12.03;;
37199;SDS011;23096;50.892;16.746;2022-08-19T06:56:11;15.15;;;12.25;;
37199;SDS011;23096;50.892;16.746;2022-08-19T06:58:38;13.05;;;11.30;;
37199;SDS011;23096;50.892;16.746;2022-08-19T07:01:04;13.85;;;11.03;;
37199;SDS011;23096;50.892;16.746;2022-08-19T07:03:32;15.43;;;11.15;;
37199;SDS011;23096;50.892;16.746;2022-08-19T07:06:07;18.65;;;11.55;;
37199;SDS011;23096;50.892;16.746;2022-08-19T07:08:38;18.65;;;12.00;;
37199;SDS011;23096;50.892;16.746;2022-08-19T07:11:08;12.20;;;10.85;;
37199;SDS011;23096;50.892;16.746;2022-08-19T07:13:38;11.68;;;10.48;;
37199;SDS011;23096;50.892;16.746;2022-08-19T07:16:13;17.80;;;11.25;;
37199;SDS011;23096;50.892;16.746;2022-08-19T07:18:39;17.62;;;9.90;;
37199;SDS011;23096;50.892;16.746;2022-08-19T07:21:07;14.23;;;10.50;;
37199;SDS011;23096;50.892;16.746;2022-08-19T07:23:37;11.15;;;9.65;;
37199;SDS011;23096;50.892;16.746;2022-08-19T07:26:12;14.60;;;9.08;;
37199;SDS011;23096;50.892;16.746;2022-08-19T07:28:41;14.93;;;9.68;;
37199;SDS011;23096;50.892;16.746;2022-08-19T07:31:11;11.15;;;8.58;;
37199;SDS011;23096;50.892;16.746;2022-08-19T07:33:41;17.42;;;9.15;;
37199;SDS011;23096;50.892;16.746;2022-08-19T07:36:09;13.15;;;8.80;;
37199;SDS011;23096;50.892;16.746;2022-08-19T07:38:39;15.20;;;8.38;;
37199;SDS011;23096;50.892;16.746;2022-08-19T07:41:11;12.20;;;7.67;;
37199;SDS011;23096;50.892;16.746;2022-08-19T07:43:41;8.33;;;7.37;;
37199;SDS011;23096;50.892;16.746;2022-08-19T07:46:08;9.38;;;8.08;;
37199;SDS011;23096;50.892;16.746;2022-08-19T07:48:37;15.58;;;9.03;;
37199;SDS011;23096;50.892;16.746;2022-08-19T07:51:05;15.68;;;8.08;;
37199;SDS011;23096;50.892;16.746;2022-08-19T07:53:34;13.90;;;7.37;;
37199;SDS011;23096;50.892;16.746;2022-08-19T07:56:03;9.28;;;7.33;;
37199;SDS011;23096;50.892;16.746;2022-08-19T07:58:32;13.03;;;7.67;;
37199;SDS011;23096;50.892;16.746;2022-08-19T08:01:02;8.80;;;7.50;;
37199;SDS011;23096;50.892;16.746;2022-08-19T08:03:30;8.55;;;6.33;;
37199;SDS011;23096;50.892;16.746;2022-08-19T08:06:16;9.88;;;6.72;;
37199;SDS011;23096;50.892;16.746;2022-08-19T08:09:01;6.78;;;6.00;;
37199;SDS011;23096;50.892;16.746;2022-08-19T08:11:43;11.40;;;7.10;;
37199;SDS011;23096;50.892;16.746;2022-08-19T08:14:21;7.10;;;6.05;;
37199;SDS011;23096;50.892;16.746;2022-08-19T08:16:53;10.88;;;6.25;;
37199;SDS011;23096;50.892;16.746;2022-08-19T08:19:21;11.00;;;5.12;;
37199;SDS011;23096;50.892;16.746;2022-08-19T08:21:50;8.18;;;5.85;;
37199;SDS011;23096;50.892;16.746;2022-08-19T08:24:17;11.25;;;5.97;;
37199;SDS011;23096;50.892;16.746;2022-08-19T08:26:45;9.28;;;6.35;;
37199;SDS011;23096;50.892;16.746;2022-08-19T08:29:13;10.58;;;6.00;;
37199;SDS011;23096;50.892;16.746;2022-08-19T08:31:42;7.37;;;5.10;;
37199;SDS011;23096;50.892;16.746;2022-08-19T08:34:10;5.92;;;5.33;;
37199;SDS011;23096;50.892;16.746;2022-08-19T08:36:39;8.08;;;5.65;;
37199;SDS011;23096;50.892;16.746;2022-08-19T08:39:17;7.85;;;5.17;;
37199;SDS011;23096;50.892;16.746;2022-08-19T08:44:26;7.53;;;4.75;;
37199;SDS011;23096;50.892;16.746;2022-08-19T08:47:17;10.35;;;5.45;;
37199;SDS011;23096;50.892;16.746;2022-08-19T08:49:56;9.30;;;6.00;;
37199;SDS011;23096;50.892;16.746;2022-08-19T08:52:31;7.10;;;6.00;;
37199;SDS011;23096;50.892;16.746;2022-08-19T08:55:07;7.83;;;5.53;;
37199;SDS011;23096;50.892;16.746;2022-08-19T09:02:57;8.10;;;6.05;;
37199;SDS011;23096;50.892;16.746;2022-08-19T09:05:27;8.35;;;5.53;;
37199;SDS011;23096;50.892;16.746;2022-08-19T09:14:23;7.78;;;6.05;;
37199;SDS011;23096;50.892;16.746;2022-08-19T09:16:54;8.13;;;5.25;;
37199;SDS011;23096;50.892;16.746;2022-08-19T09:19:23;6.20;;;4.80;;
37199;SDS011;23096;50.892;16.746;2022-08-19T09:21:50;8.95;;;5.22;;
37199;SDS011;23096;50.892;16.746;2022-08-19T09:24:16;5.47;;;4.83;;
37199;SDS011;23096;50.892;16.746;2022-08-19T09:26:42;6.95;;;5.25;;
37199;SDS011;23096;50.892;16.746;2022-08-19T09:29:09;7.12;;;5.35;;
37199;SDS011;23096;50.892;16.746;2022-08-19T09:31:36;7.08;;;5.53;;
37199;SDS011;23096;50.892;16.746;2022-08-19T09:34:03;8.13;;;5.40;;
37199;SDS011;23096;50.892;16.746;2022-08-19T09:36:32;11.30;;;5.90;;
37199;SDS011;23096;50.892;16.746;2022-08-19T09:39:00;7.42;;;5.05;;
37199;SDS011;23096;50.892;16.746;2022-08-19T09:41:28;8.13;;;5.10;;
37199;SDS011;23096;50.892;16.746;2022-08-19T09:43:55;6.37;;;5.15;;
37199;SDS011;23096;50.892;16.746;2022-08-19T09:46:25;8.75;;;5.90;;
37199;SDS011;23096;50.892;16.746;2022-08-19T09:48:53;6.28;;;5.05;;
37199;SDS011;23096;50.892;16.746;2022-08-19T09:51:21;5.60;;;5.00;;
37199;SDS011;23096;50.892;16.746;2022-08-19T09:53:50;4.92;;;4.12;;
37199;SDS011;23096;50.892;16.746;2022-08-19T09:56:19;4.92;;;4.42;;
37199;SDS011;23096;50.892;16.746;2022-08-19T09:58:47;9.28;;;5.08;;
37199;SDS011;23096;50.892;16.746;2022-08-19T10:01:18;7.05;;;4.05;;
37199;SDS011;23096;50.892;16.746;2022-08-19T10:03:49;5.70;;;4.40;;
37199;SDS011;23096;50.892;16.746;2022-08-19T10:06:20;5.72;;;3.45;;
37199;SDS011;23096;50.892;16.746;2022-08-19T10:08:49;5.65;;;3.50;;
37199;SDS011;23096;50.892;16.746;2022-08-19T10:11:17;6.37;;;3.92;;
37199;SDS011;23096;50.892;16.746;2022-08-19T10:13:45;4.30;;;3.47;;
37199;SDS011;23096;50.892;16.746;2022-08-19T10:16:14;6.42;;;3.47;;
37199;SDS011;23096;50.892;16.746;2022-08-19T10:18:45;4.35;;;3.62;;
37199;SDS011;23096;50.892;16.746;2022-08-19T10:21:20;4.90;;;3.55;;
37199;SDS011;23096;50.892;16.746;2022-08-19T10:23:46;5.47;;;3.20;;
37199;SDS011;23096;50.892;16.746;2022-08-19T10:26:17;4.97;;;3.30;;
37199;SDS011;23096;50.892;16.746;2022-08-19T10:28:52;3.08;;;2.77;;
37199;SDS011;23096;50.892;16.746;2022-08-19T10:31:21;6.40;;;3.65;;
37199;SDS011;23096;50.892;16.746;2022-08-19T10:33:51;5.20;;;3.67;;
37199;SDS011;23096;50.892;16.746;2022-08-19T10:36:20;5.37;;;3.92;;
37199;SDS011;23096;50.892;16.746;2022-08-19T10:38:49;4.35;;;3.00;;
37199;SDS011;23096;50.892;16.746;2022-08-19T10:41:19;4.28;;;3.30;;
37199;SDS011;23096;50.892;16.746;2022-08-19T10:43:52;4.85;;;3.87;;
37199;SDS011;23096;50.892;16.746;2022-08-19T10:46:41;7.78;;;3.50;;
37199;SDS011;23096;50.892;16.746;2022-08-19T10:49:10;3.95;;;3.10;;
37199;SDS011;23096;50.892;16.746;2022-08-19T10:51:37;5.67;;;3.62;;
37199;SDS011;23096;50.892;16.746;2022-08-19T10:54:23;6.95;;;4.22;;
37199;SDS011;23096;50.892;16.746;2022-08-19T10:56:52;6.00;;;3.75;;
37199;SDS011;23096;50.892;16.746;2022-08-19T10:59:25;5.62;;;3.58;;
37199;SDS011;23096;50.892;16.746;2022-08-19T11:01:54;8.25;;;4.28;;
37199;SDS011;23096;50.892;16.746;2022-08-19T11:04:26;4.03;;;3.60;;
37199;SDS011;23096;50.892;16.746;2022-08-19T11:06:52;4.72;;;4.28;;
37199;SDS011;23096;50.892;16.746;2022-08-19T11:09:19;4.15;;;3.35;;
37199;SDS011;23096;50.892;16.746;2022-08-19T11:11:53;4.17;;;3.37;;
37199;SDS011;23096;50.892;16.746;2022-08-19T11:14:20;7.00;;;4.67;;
37199;SDS011;23096;50.892;16.746;2022-08-19T11:16:47;4.12;;;3.62;;
37199;SDS011;23096;50.892;16.746;2022-08-19T11:19:15;5.15;;;4.40;;
37199;SDS011;23096;50.892;16.746;2022-08-19T11:21:45;5.72;;;3.67;;
37199;SDS011;23096;50.892;16.746;2022-08-19T11:24:14;7.53;;;3.37;;
37199;SDS011;23096;50.892;16.746;2022-08-19T11:26:45;5.45;;;3.60;;
37199;SDS011;23096;50.892;16.746;2022-08-19T11:29:15;7.60;;;3.80;;
37199;SDS011;23096;50.892;16.746;2022-08-19T11:31:44;5.62;;;3.10;;
37199;SDS011;23096;50.892;16.746;2022-08-19T11:34:15;6.22;;;3.70;;
37199;SDS011;23096;50.892;16.746;2022-08-19T11:36:45;4.87;;;3.27;;
37199;SDS011;23096;50.892;16.746;2022-08-19T11:39:15;6.70;;;3.80;;
37199;SDS011;23096;50.892;16.746;2022-08-19T11:41:42;4.28;;;3.50;;
37199;SDS011;23096;50.892;16.746;2022-08-19T11:44:09;7.72;;;2.98;;
37199;SDS011;23096;50.892;16.746;2022-08-19T11:46:36;3.92;;;3.52;;
37199;SDS011;23096;50.892;16.746;2022-08-19T11:49:04;5.53;;;3.85;;
37199;SDS011;23096;50.892;16.746;2022-08-19T11:51:33;4.62;;;3.37;;
37199;SDS011;23096;50.892;16.746;2022-08-19T11:53:59;5.20;;;3.50;;
37199;SDS011;23096;50.892;16.746;2022-08-19T11:56:27;5.40;;;3.62;;
37199;SDS011;23096;50.892;16.746;2022-08-19T11:58:53;8.18;;;3.22;;
37199;SDS011;23096;50.892;16.746;2022-08-19T12:01:22;6.25;;;4.00;;
37199;SDS011;23096;50.892;16.746;2022-08-19T12:03:52;6.87;;;4.12;;
37199;SDS011;23096;50.892;16.746;2022-08-19T12:06:24;7.10;;;3.85;;
37199;SDS011;23096;50.892;16.746;2022-08-19T12:08:59;6.92;;;4.10;;
37199;SDS011;23096;50.892;16.746;2022-08-19T12:11:26;4.65;;;3.42;;
37199;SDS011;23096;50.892;16.746;2022-08-19T12:13:53;6.80;;;3.75;;
37199;SDS011;23096;50.892;16.746;2022-08-19T12:16:21;7.15;;;4.30;;
37199;SDS011;23096;50.892;16.746;2022-08-19T12:18:52;7.33;;;4.83;;
37199;SDS011;23096;50.892;16.746;2022-08-19T12:21:25;4.40;;;3.33;;
37199;SDS011;23096;50.892;16.746;2022-08-19T12:23:55;4.92;;;3.42;;
37199;SDS011;23096;50.892;16.746;2022-08-19T12:26:24;5.00;;;3.55;;
37199;SDS011;23096;50.892;16.746;2022-08-19T12:28:52;6.83;;;3.85;;
37199;SDS011;23096;50.892;16.746;2022-08-19T12:31:19;6.80;;;4.03;;
37199;SDS011;23096;50.892;16.746;2022-08-19T12:33:45;4.35;;;3.55;;
37199;SDS011;23096;50.892;16.746;2022-08-19T12:36:13;5.60;;;3.52;;
37199;SDS011;23096;50.892;16.746;2022-08-19T12:38:41;5.03;;;3.42;;
37199;SDS011;23096;50.892;16.746;2022-08-19T12:41:10;7.83;;;3.75;;
37199;SDS011;23096;50.892;16.746;2022-08-19T12:43:39;7.30;;;3.92;;
37199;SDS011;23096;50.892;16.746;2022-08-19T12:46:06;6.10;;;3.35;;
37199;SDS011;23096;50.892;16.746;2022-08-19T12:48:33;8.43;;;3.87;;
37199;SDS011;23096;50.892;16.746;2022-08-19T12:51:00;11.40;;;4.22;;
37199;SDS011;23096;50.892;16.746;2022-08-19T12:53:32;5.78;;;3.72;;
37199;SDS011;23096;50.892;16.746;2022-08-19T12:55:58;4.72;;;3.30;;
37199;SDS011;23096;50.892;16.746;2022-08-19T12:58:25;5.40;;;3.15;;
37199;SDS011;23096;50.892;16.746;2022-08-19T13:00:54;9.58;;;3.62;;
37199;SDS011;23096;50.892;16.746;2022-08-19T13:03:20;9.48;;;3.50;;
37199;SDS011;23096;50.892;16.746;2022-08-19T13:05:50;4.80;;;3.83;;
37199;SDS011;23096;50.892;16.746;2022-08-19T13:08:16;9.25;;;3.85;;
37199;SDS011;23096;50.892;16.746;2022-08-19T13:10:42;7.40;;;4.33;;
37199;SDS011;23096;50.892;16.746;2022-08-19T13:13:09;7.97;;;3.87;;
37199;SDS011;23096;50.892;16.746;2022-08-19T13:15:36;9.25;;;3.85;;
37199;SDS011;23096;50.892;16.746;2022-08-19T13:18:05;7.08;;;4.60;;
37199;SDS011;23096;50.892;16.746;2022-08-19T13:20:34;8.95;;;3.67;;
37199;SDS011;23096;50.892;16.746;2022-08-19T13:23:01;8.30;;;4.35;;
37199;SDS011;23096;50.892;16.746;2022-08-19T13:25:27;10.53;;;4.35;;
37199;SDS011;23096;50.892;16.746;2022-08-19T13:27:54;6.40;;;3.95;;
37199;SDS011;23096;50.892;16.746;2022-08-19T13:30:21;5.58;;;3.65;;
37199;SDS011;23096;50.892;16.746;2022-08-19T13:33:07;5.97;;;3.45;;
37199;SDS011;23096;50.892;16.746;2022-08-19T13:35:38;3.92;;;3.62;;
37199;SDS011;23096;50.892;16.746;2022-08-19T13:38:08;4.95;;;3.35;;
37199;SDS011;23096;50.892;16.746;2022-08-19T13:40:35;5.95;;;3.45;;
37199;SDS011;23096;50.892;16.746;2022-08-19T13:43:03;5.03;;;3.47;;
37199;SDS011;23096;50.892;16.746;2022-08-19T13:45:30;3.67;;;3.25;;
37199;SDS011;23096;50.892;16.746;2022-08-19T13:48:03;6.28;;;3.47;;
37199;SDS011;23096;50.892;16.746;2022-08-19T13:50:33;4.42;;;3.90;;
37199;SDS011;23096;50.892;16.746;2022-08-19T13:53:02;4.25;;;3.25;;
37199;SDS011;23096;50.892;16.746;2022-08-19T13:55:29;7.45;;;3.72;;
37199;SDS011;23096;50.892;16.746;2022-08-19T13:57:57;5.30;;;3.62;;
37199;SDS011;23096;50.892;16.746;2022-08-19T14:00:27;5.40;;;3.67;;
37199;SDS011;23096;50.892;16.746;2022-08-19T14:02:56;7.53;;;3.60;;
37199;SDS011;23096;50.892;16.746;2022-08-19T14:05:24;5.65;;;3.65;;
37199;SDS011;23096;50.892;16.746;2022-08-19T14:07:52;6.47;;;3.72;;
37199;SDS011;23096;50.892;16.746;2022-08-19T14:10:19;5.83;;;3.25;;
37199;SDS011;23096;50.892;16.746;2022-08-19T14:12:46;5.62;;;3.20;;
37199;SDS011;23096;50.892;16.746;2022-08-19T14:15:13;5.05;;;3.33;;
37199;SDS011;23096;50.892;16.746;2022-08-19T14:17:41;6.00;;;3.25;;
37199;SDS011;23096;50.892;16.746;2022-08-19T14:20:10;4.67;;;3.60;;
37199;SDS011;23096;50.892;16.746;2022-08-19T14:22:38;6.60;;;4.03;;
37199;SDS011;23096;50.892;16.746;2022-08-19T14:25:10;8.33;;;3.83;;
37199;SDS011;23096;50.892;16.746;2022-08-19T14:27:40;9.33;;;4.17;;
37199;SDS011;23096;50.892;16.746;2022-08-19T14:30:07;12.13;;;4.12;;
37199;SDS011;23096;50.892;16.746;2022-08-19T14:32:37;7.17;;;3.93;;
37199;SDS011;23096;50.892;16.746;2022-08-19T14:35:03;9.30;;;3.87;;
37199;SDS011;23096;50.892;16.746;2022-08-19T14:37:32;9.70;;;4.00;;
37199;SDS011;23096;50.892;16.746;2022-08-19T14:40:00;8.18;;;4.47;;
37199;SDS011;23096;50.892;16.746;2022-08-19T14:42:28;8.25;;;4.60;;
37199;SDS011;23096;50.892;16.746;2022-08-19T14:44:58;7.15;;;4.78;;
37199;SDS011;23096;50.892;16.746;2022-08-19T14:47:25;11.65;;;4.80;;
37199;SDS011;23096;50.892;16.746;2022-08-19T14:49:53;12.63;;;5.08;;
37199;SDS011;23096;50.892;16.746;2022-08-19T14:52:20;11.08;;;4.95;;